»·PEaware :: HAWG11 KLSV-KTNX

HAWG11 :: KLSV-KTNX

FLIGHT INFORMATION

Flight Status: Arrived
Operator: Unknown
More flights by this operator :: More flights under this callsign
Pilot: Logan D. (20254)
Aircraft: FAIRCHILD A-10 THUNDERBOLT 2
(A10)
More flights by this aircraft type
Origin: KLSV Nellis AFB
United States
Destination: KTNX Tonopah Test Range
United States
More flights between these airports :: More routes between these airports
Route: LSV FYTTR5 FYTTR BTY KTNX
File this flight plan on PilotEdge
Remarks: ENRTE DELAY IN R-4807A FOR 1+00
Altitude:
(Current/Filed)
15,000ft
Speed:
(Current/Filed)
250kts
Departed: 16-Feb-19 08:30 AM
Arrived: 16-Feb-19 10:01 AM
Distance/Time
Traveled:
126nm/1:31
Distance/Time
To Go:
Arrived

Flight Plot

Page will automatically refresh every two minutes.

Flight plan parsing failed; only flown route is shown


Map Options




Map Legend


Flown Route
Filed Route
Departure Airport
Arrival Airport
Navaid (VOR, NDB)
Fix

Horizontal Profiles

Position Reports

Time Latitude Longitude Heading Altitude Ground
Speed
16-Feb-19 08:04 36.229865 -115.024945 86 1850ft 0kts
16-Feb-19 08:05 36.229865 -115.024945 86 1850ft 0kts
16-Feb-19 08:06 36.229865 -115.024945 86 1850ft 0kts
16-Feb-19 08:07 36.229865 -115.024945 86 1850ft 0kts
16-Feb-19 08:08 36.229865 -115.024945 86 1850ft 0kts
16-Feb-19 08:09 36.229865 -115.024945 86 1850ft 0kts
16-Feb-19 08:10 36.229865 -115.024945 86 1850ft 0kts
16-Feb-19 08:11 36.229865 -115.024945 86 1850ft 0kts
16-Feb-19 08:12 36.229865 -115.024945 86 1850ft 0kts
16-Feb-19 08:13 36.229865 -115.024945 86 1850ft 0kts
16-Feb-19 08:14 36.229865 -115.024945 86 1850ft 0kts
16-Feb-19 08:15 36.229865 -115.024945 86 1850ft 0kts
16-Feb-19 08:16 36.229865 -115.024945 86 1850ft 0kts
16-Feb-19 08:17 36.229865 -115.024945 86 1850ft 0kts
16-Feb-19 08:18 36.229865 -115.024945 86 1850ft 0kts
16-Feb-19 08:19 36.229865 -115.024945 86 1850ft 0kts
16-Feb-19 08:20 36.229876 -115.024811 74 1850ft 0kts
16-Feb-19 08:21 36.230131 -115.024967 270 1850ft 6kts
16-Feb-19 08:22 36.230675 -115.028174 271 1850ft 16kts
16-Feb-19 08:23 36.229610 -115.032858 220 1850ft 15kts
16-Feb-19 08:24 36.227137 -115.035550 219 1850ft 9kts
16-Feb-19 08:25 36.224008 -115.038933 221 1849ft 15kts
16-Feb-19 08:26 36.223379 -115.041939 310 1848ft 7kts
16-Feb-19 08:28 36.224430 -115.043326 326 1848ft 0kts
16-Feb-19 08:29 36.225066 -115.043795 357 1848ft 11kts
16-Feb-19 08:30 36.238205 -115.029709 40 1935ft 168kts
16-Feb-19 08:31 36.283931 -114.980873 39 3857ft 241kts
16-Feb-19 08:32 36.339453 -114.929541 359 6132ft 255kts
16-Feb-19 08:33 36.358851 -114.994935 226 7794ft 270kts
16-Feb-19 08:34 36.303864 -115.058234 221 9748ft 264kts
16-Feb-19 08:35 36.251728 -115.122104 256 11540ft 261kts
16-Feb-19 08:36 36.273409 -115.212586 286 12285ft 282kts
16-Feb-19 08:37 36.291144 -115.309409 280 13096ft 289kts
16-Feb-19 08:38 36.307163 -115.407432 280 13953ft 288kts
16-Feb-19 08:39 36.322929 -115.507065 280 14264ft 302kts
16-Feb-19 08:40 36.339050 -115.610838 280 14263ft 309kts
16-Feb-19 08:41 36.357977 -115.715874 288 14138ft 314kts
16-Feb-19 08:42 36.395912 -115.812874 297 14160ft 312kts
16-Feb-19 08:43 36.437072 -115.908281 297 14156ft 312kts
16-Feb-19 08:44 36.478195 -116.003697 297 14156ft 312kts
16-Feb-19 08:45 36.519112 -116.098914 297 14162ft 312kts
16-Feb-19 08:46 36.559463 -116.194797 296 14208ft 311kts
16-Feb-19 08:46 36.592498 -116.274787 296 14208ft 312kts
16-Feb-19 08:48 36.638931 -116.387526 296 14208ft 312kts
16-Feb-19 08:49 36.680646 -116.482431 298 14202ft 312kts
16-Feb-19 08:50 36.722920 -116.577607 298 14202ft 312kts
16-Feb-19 08:50 36.758062 -116.656925 298 14202ft 312kts
16-Feb-19 08:51 36.802030 -116.750484 317 14196ft 312kts
16-Feb-19 08:53 36.901657 -116.772951 359 13720ft 317kts
16-Feb-19 08:53 36.974926 -116.773456 359 13760ft 314kts
16-Feb-19 08:54 37.062396 -116.774043 359 13761ft 313kts
16-Feb-19 08:55 37.150184 -116.774622 359 13761ft 313kts
16-Feb-19 08:56 37.237867 -116.775203 359 13761ft 313kts
16-Feb-19 08:57 37.325343 -116.775783 359 13761ft 313kts
16-Feb-19 08:58 37.408813 -116.766651 38 13618ft 280kts
16-Feb-19 08:59 37.433384 -116.677152 79 13130ft 266kts
16-Feb-19 09:00 37.446257 -116.587009 79 13131ft 257kts
16-Feb-19 09:01 37.459093 -116.496690 79 13134ft 277kts
16-Feb-19 09:02 37.472962 -116.396122 81 12859ft 308kts
16-Feb-19 09:03 37.485953 -116.279786 81 8857ft 355kts
16-Feb-19 09:04 37.536693 -116.206112 13 7698ft 287kts
16-Feb-19 09:05 37.610396 -116.194934 313 9851ft 265kts
16-Feb-19 09:06 37.583579 -116.260742 167 9394ft 324kts
16-Feb-19 09:07 37.497650 -116.230460 142 9820ft 299kts
16-Feb-19 09:08 37.485585 -116.140961 23 10449ft 296kts
16-Feb-19 09:09 37.514448 -116.200940 226 7711ft 380kts
16-Feb-19 09:10 37.526196 -116.289121 335 9596ft 288kts
16-Feb-19 09:11 37.579364 -116.250819 115 9014ft 324kts
16-Feb-19 09:12 37.504952 -116.208660 123 7419ft 276kts
16-Feb-19 09:13 37.518545 -116.139781 356 8703ft 235kts
16-Feb-19 09:14 37.577545 -116.179850 328 9169ft 240kts
16-Feb-19 09:15 37.628732 -116.231934 283 9552ft 251kts
16-Feb-19 09:16 37.642723 -116.316326 315 9800ft 250kts
16-Feb-19 09:17 37.691420 -116.285302 103 11014ft 292kts
16-Feb-19 09:18 37.620000 -116.241405 177 10944ft 321kts
16-Feb-19 09:19 37.529451 -116.235304 176 10850ft 327kts
16-Feb-19 09:20 37.468488 -116.290414 271 10896ft 334kts
16-Feb-19 09:21 37.502771 -116.391057 333 11927ft 312kts
16-Feb-19 09:22 37.541805 -116.320481 117 11302ft 334kts
16-Feb-19 09:23 37.488529 -116.224723 123 11267ft 328kts
16-Feb-19 09:24 37.451859 -116.144997 34 12700ft 299kts
16-Feb-19 09:25 37.500060 -116.194118 254 12218ft 326kts
16-Feb-19 09:26 37.461819 -116.291320 203 13170ft 313kts
16-Feb-19 09:27 37.411323 -116.232637 21 11118ft 356kts
16-Feb-19 09:28 37.501300 -116.211757 61 11147ft 323kts
16-Feb-19 09:29 37.462503 -116.143960 221 10561ft 341kts
16-Feb-19 09:30 37.442754 -116.242773 347 7819ft 374kts
16-Feb-19 09:31 37.518214 -116.247725 279 6295ft 278kts
16-Feb-19 09:32 37.473964 -116.258129 60 6159ft 331kts
16-Feb-19 09:33 37.516395 -116.275111 237 8080ft 271kts
16-Feb-19 09:34 37.487978 -116.222040 80 5727ft 334kts
16-Feb-19 09:35 37.523228 -116.137504 125 9174ft 289kts
16-Feb-19 09:36 37.478608 -116.175388 282 10281ft 297kts
16-Feb-19 09:37 37.496171 -116.272832 299 13147ft 279kts
16-Feb-19 09:38 37.548433 -116.271780 102 12654ft 265kts
16-Feb-19 09:39 37.481145 -116.237158 194 11769ft 281kts
16-Feb-19 09:40 37.466514 -116.302242 321 11799ft 206kts
16-Feb-19 09:41 37.531383 -116.278313 59 11942ft 315kts
16-Feb-19 09:42 37.516043 -116.175095 142 11937ft 334kts
16-Feb-19 09:43 37.430023 -116.179833 224 11936ft 336kts
16-Feb-19 09:44 37.402038 -116.288755 262 12199ft 334kts
16-Feb-19 09:45 37.402122 -116.394924 276 12134ft 271kts
16-Feb-19 09:46 37.415487 -116.497810 279 12432ft 294kts
16-Feb-19 09:47 37.429543 -116.595541 280 12469ft 279kts
16-Feb-19 09:48 37.412288 -116.675313 179 11596ft 298kts
16-Feb-19 09:49 37.344469 -116.640418 203 9964ft 245kts
16-Feb-19 09:50 37.323431 -116.705623 293 10045ft 220kts
16-Feb-19 09:51 37.379799 -116.756824 342 10202ft 276kts
16-Feb-19 09:52 37.445663 -116.774364 346 9923ft 229kts
16-Feb-19 09:53 37.517928 -116.787938 3 10122ft 235kts
16-Feb-19 09:54 37.576042 -116.783909 0 9992ft 186kts
16-Feb-19 09:55 37.625322 -116.758974 29 9464ft 205kts
16-Feb-19 09:56 37.677088 -116.735738 10 8419ft 180kts
16-Feb-19 09:57 37.725659 -116.742269 336 7135ft 176kts
16-Feb-19 09:58 37.767937 -116.764530 336 6215ft 150kts
16-Feb-19 09:59 37.798346 -116.780552 335 5541ft 53kts
16-Feb-19 10:00 37.805384 -116.782778 66 5541ft 11kts
16-Feb-19 10:01 37.806494 -116.778792 145 5541ft 8kts
16-Feb-19 10:02 37.806549 -116.778217 338 5541ft 0kts
16-Feb-19 10:03 37.806549 -116.778217 338 5541ft 0kts
16-Feb-19 10:04 37.806549 -116.778217 338 5541ft 0kts
16-Feb-19 10:05 37.806549 -116.778217 338 5541ft 0kts
16-Feb-19 10:06 37.806549 -116.778217 338 5541ft 0kts
16-Feb-19 10:07 37.806549 -116.778217 338 5541ft 0kts
16-Feb-19 10:08 37.806549 -116.778217 338 5541ft 0kts
16-Feb-19 10:09 37.806549 -116.778217 338 5541ft 0kts
16-Feb-19 10:10 37.806549 -116.778217 338 5541ft 0kts
16-Feb-19 10:11 37.806549 -116.778217 338 5541ft 0kts
16-Feb-19 10:12 37.806549 -116.778217 338 5541ft 0kts
16-Feb-19 10:13 37.806549 -116.778217 338 5541ft 0kts
16-Feb-19 10:14 37.806549 -116.778217 338 5541ft 0kts

Navigation Log

Ident Type
Flight plan parsing failed, navigation log unavailable